sensor_id;sensor_type;location;lat;lon;timestamp;pressure;altitude;pressure_sealevel;temperature;humidity
18500;BME280;9379;52.134;11.576;2023-05-03T10:35:50;102252.91;;;16.88;52.83
18500;BME280;9379;52.134;11.576;2023-05-03T10:38:20;102256.53;;;16.68;53.00
18500;BME280;9379;52.134;11.576;2023-05-03T10:40:47;102252.88;;;17.19;53.92
18500;BME280;9379;52.134;11.576;2023-05-03T10:43:41;102242.09;;;15.76;55.52
18500;BME280;9379;52.134;11.576;2023-05-03T10:46:28;102241.97;;;15.98;54.91
18500;BME280;9379;52.134;11.576;2023-05-03T10:49:23;102237.63;;;16.28;54.75
18500;BME280;9379;52.134;11.576;2023-05-03T10:51:52;102237.81;;;16.97;54.29
18500;BME280;9379;52.134;11.576;2023-05-03T10:54:18;102235.13;;;17.86;52.43
18500;BME280;9379;52.134;11.576;2023-05-03T10:56:50;102236.19;;;18.31;49.93
18500;BME280;9379;52.134;11.576;2023-05-03T10:59:17;102232.69;;;17.44;51.66
18500;BME280;9379;52.134;11.576;2023-05-03T11:01:45;102229.78;;;18.42;52.84
18500;BME280;9379;52.134;11.576;2023-05-03T11:07:06;102229.81;;;18.32;51.42
18500;BME280;9379;52.134;11.576;2023-05-03T11:09:34;102216.25;;;18.52;54.40
18500;BME280;9379;52.134;11.576;2023-05-03T11:12:06;102233.88;;;18.83;50.27
18500;BME280;9379;52.134;11.576;2023-05-03T11:14:33;102219.25;;;18.02;51.53
18500;BME280;9379;52.134;11.576;2023-05-03T11:17:00;102226.06;;;16.88;51.86
18500;BME280;9379;52.134;11.576;2023-05-03T11:19:27;102214.13;;;18.18;52.21
18500;BME280;9379;52.134;11.576;2023-05-03T11:21:55;102208.63;;;18.00;50.86
18500;BME280;9379;52.134;11.576;2023-05-03T11:24:24;102196.34;;;17.49;51.65
18500;BME280;9379;52.134;11.576;2023-05-03T11:26:50;102209.44;;;18.57;50.46
18500;BME280;9379;52.134;11.576;2023-05-03T11:29:17;102206.66;;;17.44;57.55
18500;BME280;9379;52.134;11.576;2023-05-03T11:31:45;102198.13;;;19.09;53.48
18500;BME280;9379;52.134;11.576;2023-05-03T11:34:12;102196.56;;;18.14;55.07
18500;BME280;9379;52.134;11.576;2023-05-03T11:36:40;102183.69;;;18.82;49.96
18500;BME280;9379;52.134;11.576;2023-05-03T11:39:07;102190.78;;;18.46;53.58
18500;BME280;9379;52.134;11.576;2023-05-03T11:41:35;102190.28;;;19.51;49.59
18500;BME280;9379;52.134;11.576;2023-05-03T11:44:03;102185.53;;;19.45;49.90
18500;BME280;9379;52.134;11.576;2023-05-03T11:46:32;102187.53;;;18.80;50.80
18500;BME280;9379;52.134;11.576;2023-05-03T11:48:59;102165.81;;;19.62;50.94
18500;BME280;9379;52.134;11.576;2023-05-03T11:51:27;102170.31;;;19.79;49.06
18500;BME280;9379;52.134;11.576;2023-05-03T11:53:54;102169.72;;;19.14;49.72
18500;BME280;9379;52.134;11.576;2023-05-03T11:56:21;102175.69;;;19.97;48.13
18500;BME280;9379;52.134;11.576;2023-05-03T11:58:51;102175.59;;;20.07;51.27
18500;BME280;9379;52.134;11.576;2023-05-03T12:01:22;102180.34;;;19.87;48.47
18500;BME280;9379;52.134;11.576;2023-05-03T12:03:52;102175.59;;;19.45;49.13
18500;BME280;9379;52.134;11.576;2023-05-03T12:06:20;102179.66;;;19.67;51.23
18500;BME280;9379;52.134;11.576;2023-05-03T12:08:46;102175.09;;;19.32;48.73
18500;BME280;9379;52.134;11.576;2023-05-03T12:11:13;102180.31;;;18.43;49.33
18500;BME280;9379;52.134;11.576;2023-05-03T12:13:40;102166.09;;;19.41;49.15
18500;BME280;9379;52.134;11.576;2023-05-03T12:16:09;102172.97;;;19.36;48.53
18500;BME280;9379;52.134;11.576;2023-05-03T12:18:49;102170.25;;;19.18;47.82
18500;BME280;9379;52.134;11.576;2023-05-03T12:21:17;102163.25;;;19.43;50.62
18500;BME280;9379;52.134;11.576;2023-05-03T12:23:44;102165.03;;;17.97;50.31
18500;BME280;9379;52.134;11.576;2023-05-03T12:26:14;102163.06;;;18.63;49.25
18500;BME280;9379;52.134;11.576;2023-05-03T12:28:41;102156.25;;;18.69;49.70
18500;BME280;9379;52.134;11.576;2023-05-03T12:31:09;102153.22;;;18.82;52.62
18500;BME280;9379;52.134;11.576;2023-05-03T12:33:36;102148.00;;;18.43;54.29
18500;BME280;9379;52.134;11.576;2023-05-03T12:36:04;102144.28;;;18.17;52.51
18500;BME280;9379;52.134;11.576;2023-05-03T12:38:31;102158.13;;;18.59;50.49
18500;BME280;9379;52.134;11.576;2023-05-03T12:40:59;102145.84;;;19.02;50.32
18500;BME280;9379;52.134;11.576;2023-05-03T12:43:26;102150.81;;;18.79;49.55
18500;BME280;9379;52.134;11.576;2023-05-03T12:45:53;102143.34;;;18.35;51.44
18500;BME280;9379;52.134;11.576;2023-05-03T12:48:22;102141.97;;;18.31;51.74
18500;BME280;9379;52.134;11.576;2023-05-03T12:50:49;102141.06;;;18.41;53.98
18500;BME280;9379;52.134;11.576;2023-05-03T12:53:16;102143.56;;;17.48;52.85
18500;BME280;9379;52.134;11.576;2023-05-03T12:55:46;102136.44;;;18.33;51.95
18500;BME280;9379;52.134;11.576;2023-05-03T12:58:12;102138.56;;;18.67;50.87
18500;BME280;9379;52.134;11.576;2023-05-03T13:00:39;102136.13;;;18.36;50.36
18500;BME280;9379;52.134;11.576;2023-05-03T13:03:06;102132.97;;;18.78;49.07
18500;BME280;9379;52.134;11.576;2023-05-03T13:05:35;102128.41;;;18.51;49.28
18500;BME280;9379;52.134;11.576;2023-05-03T13:08:02;102125.00;;;18.21;49.37
18500;BME280;9379;52.134;11.576;2023-05-03T13:10:29;102133.94;;;17.36;52.05
18500;BME280;9379;52.134;11.576;2023-05-03T13:12:55;102130.31;;;18.03;51.95
18500;BME280;9379;52.134;11.576;2023-05-03T13:15:22;102125.59;;;17.49;51.77
18500;BME280;9379;52.134;11.576;2023-05-03T13:17:49;102124.25;;;18.29;51.32
18500;BME280;9379;52.134;11.576;2023-05-03T13:20:17;102122.22;;;17.37;50.72
18500;BME280;9379;52.134;11.576;2023-05-03T13:22:48;102118.63;;;18.50;51.08
18500;BME280;9379;52.134;11.576;2023-05-03T13:25:15;102110.28;;;17.69;51.36
18500;BME280;9379;52.134;11.576;2023-05-03T13:27:41;102110.38;;;18.33;51.05
18500;BME280;9379;52.134;11.576;2023-05-03T13:30:09;102105.28;;;18.58;50.35
18500;BME280;9379;52.134;11.576;2023-05-03T13:32:36;102102.25;;;18.43;50.05
18500;BME280;9379;52.134;11.576;2023-05-03T13:35:03;102100.09;;;18.19;50.95
18500;BME280;9379;52.134;11.576;2023-05-03T13:37:30;102097.44;;;18.10;50.40
18500;BME280;9379;52.134;11.576;2023-05-03T13:39:58;102097.16;;;18.03;50.42
18500;BME280;9379;52.134;11.576;2023-05-03T13:42:25;102091.56;;;18.24;50.66
18500;BME280;9379;52.134;11.576;2023-05-03T13:44:52;102087.81;;;18.07;51.04
18500;BME280;9379;52.134;11.576;2023-05-03T13:47:19;102081.22;;;17.92;50.63
18500;BME280;9379;52.134;11.576;2023-05-03T13:49:46;102087.84;;;17.31;51.41
18500;BME280;9379;52.134;11.576;2023-05-03T13:52:13;102074.91;;;17.54;52.59
18500;BME280;9379;52.134;11.576;2023-05-03T13:54:40;102075.16;;;17.80;50.70
18500;BME280;9379;52.134;11.576;2023-05-03T13:57:09;102071.28;;;17.92;50.86
18500;BME280;9379;52.134;11.576;2023-05-03T13:59:35;102076.66;;;16.87;50.67
18500;BME280;9379;52.134;11.576;2023-05-03T14:02:02;102069.31;;;16.80;50.79
18500;BME280;9379;52.134;11.576;2023-05-03T14:04:29;102063.78;;;17.01;52.73
18500;BME280;9379;52.134;11.576;2023-05-03T14:06:56;102058.97;;;17.24;51.40
18500;BME280;9379;52.134;11.576;2023-05-03T14:09:27;102051.56;;;17.55;50.43
18500;BME280;9379;52.134;11.576;2023-05-03T14:11:53;102050.66;;;17.27;50.41
18500;BME280;9379;52.134;11.576;2023-05-03T14:14:25;102030.00;;;17.27;50.88
18500;BME280;9379;52.134;11.576;2023-05-03T14:16:52;102041.13;;;17.42;50.38
18500;BME280;9379;52.134;11.576;2023-05-03T14:19:19;102042.72;;;17.25;49.32
18500;BME280;9379;52.134;11.576;2023-05-03T14:21:46;102043.97;;;17.31;51.17
18500;BME280;9379;52.134;11.576;2023-05-03T14:24:14;102047.56;;;17.02;50.62
18500;BME280;9379;52.134;11.576;2023-05-03T14:26:41;102039.34;;;16.84;52.13
18500;BME280;9379;52.134;11.576;2023-05-03T14:29:08;102036.63;;;17.23;51.47
18500;BME280;9379;52.134;11.576;2023-05-03T14:31:36;102039.22;;;17.15;51.62
18500;BME280;9379;52.134;11.576;2023-05-03T14:34:02;102035.97;;;17.77;52.64
18500;BME280;9379;52.134;11.576;2023-05-03T14:36:30;102031.25;;;17.33;51.40
18500;BME280;9379;52.134;11.576;2023-05-03T14:39:01;102041.28;;;17.40;50.00
18500;BME280;9379;52.134;11.576;2023-05-03T14:41:28;102032.25;;;17.12;50.21
18500;BME280;9379;52.134;11.576;2023-05-03T14:43:56;102038.22;;;17.16;50.69
18500;BME280;9379;52.134;11.576;2023-05-03T14:46:23;102028.03;;;17.19;50.42
18500;BME280;9379;52.134;11.576;2023-05-03T14:48:51;102033.94;;;17.23;50.21
18500;BME280;9379;52.134;11.576;2023-05-03T14:51:21;102035.53;;;17.26;53.62
18500;BME280;9379;52.134;11.576;2023-05-03T14:53:48;102026.03;;;17.31;52.48
18500;BME280;9379;52.134;11.576;2023-05-03T14:56:15;102030.59;;;17.68;51.02
18500;BME280;9379;52.134;11.576;2023-05-03T14:58:42;102031.56;;;17.10;50.99
18500;BME280;9379;52.134;11.576;2023-05-03T15:01:15;102028.19;;;17.74;51.09
18500;BME280;9379;52.134;11.576;2023-05-03T15:03:43;102021.31;;;17.53;51.37
18500;BME280;9379;52.134;11.576;2023-05-03T15:06:11;102023.53;;;17.57;51.37
18500;BME280;9379;52.134;11.576;2023-05-03T15:08:38;102027.53;;;17.53;51.96
18500;BME280;9379;52.134;11.576;2023-05-03T15:11:05;102028.66;;;17.60;51.88
18500;BME280;9379;52.134;11.576;2023-05-03T15:13:33;102025.94;;;17.70;52.18
18500;BME280;9379;52.134;11.576;2023-05-03T15:16:00;102021.81;;;17.00;53.23
18500;BME280;9379;52.134;11.576;2023-05-03T15:18:27;102033.13;;;16.84;52.67
18500;BME280;9379;52.134;11.576;2023-05-03T15:20:53;102015.47;;;16.81;53.11
18500;BME280;9379;52.134;11.576;2023-05-03T15:23:22;102027.75;;;17.03;51.99
18500;BME280;9379;52.134;11.576;2023-05-03T15:25:48;102011.28;;;17.35;51.66
18500;BME280;9379;52.134;11.576;2023-05-03T15:28:15;102015.97;;;17.33;52.24
18500;BME280;9379;52.134;11.576;2023-05-03T15:30:42;102014.19;;;17.14;52.22
18500;BME280;9379;52.134;11.576;2023-05-03T15:33:09;102013.34;;;17.14;51.28
18500;BME280;9379;52.134;11.576;2023-05-03T15:35:38;101999.06;;;16.94;52.93
18500;BME280;9379;52.134;11.576;2023-05-03T15:38:05;102004.34;;;17.42;51.65
18500;BME280;9379;52.134;11.576;2023-05-03T15:40:34;102007.19;;;17.41;52.22
18500;BME280;9379;52.134;11.576;2023-05-03T15:43:00;102009.88;;;17.41;53.62
18500;BME280;9379;52.134;11.576;2023-05-03T15:45:27;102012.13;;;17.45;53.45
18500;BME280;9379;52.134;11.576;2023-05-03T15:47:55;101999.00;;;17.23;52.81
18500;BME280;9379;52.134;11.576;2023-05-03T15:50:22;102004.16;;;17.63;51.88
18500;BME280;9379;52.134;11.576;2023-05-03T15:52:49;101996.25;;;16.96;52.44
18500;BME280;9379;52.134;11.576;2023-05-03T15:55:17;102005.66;;;16.42;52.96
18500;BME280;9379;52.134;11.576;2023-05-03T15:57:45;101998.19;;;17.13;52.12
18500;BME280;9379;52.134;11.576;2023-05-03T16:00:15;102002.53;;;17.24;51.04
18500;BME280;9379;52.134;11.576;2023-05-03T16:02:42;101991.06;;;17.41;52.62
18500;BME280;9379;52.134;11.576;2023-05-03T16:05:09;101997.47;;;17.11;51.76
18500;BME280;9379;52.134;11.576;2023-05-03T16:07:35;101992.41;;;16.98;52.64
18500;BME280;9379;52.134;11.576;2023-05-03T16:10:03;101993.69;;;17.13;51.38
18500;BME280;9379;52.134;11.576;2023-05-03T16:12:29;101985.09;;;16.71;52.54
18500;BME280;9379;52.134;11.576;2023-05-03T16:14:57;101995.78;;;16.52;52.23
18500;BME280;9379;52.134;11.576;2023-05-03T16:17:25;101983.91;;;16.54;54.66
18500;BME280;9379;52.134;11.576;2023-05-03T16:19:52;101989.28;;;16.64;54.33
18500;BME280;9379;52.134;11.576;2023-05-03T16:22:19;101971.38;;;16.84;54.27
18500;BME280;9379;52.134;11.576;2023-05-03T16:24:45;101999.47;;;17.09;53.75
18500;BME280;9379;52.134;11.576;2023-05-03T16:27:12;101984.78;;;17.03;54.25
18500;BME280;9379;52.134;11.576;2023-05-03T16:29:39;101972.75;;;17.07;52.79
18500;BME280;9379;52.134;11.576;2023-05-03T16:32:07;101984.50;;;16.58;53.45
18500;BME280;9379;52.134;11.576;2023-05-03T16:34:35;101979.97;;;17.07;53.79
18500;BME280;9379;52.134;11.576;2023-05-03T16:37:02;101989.72;;;17.17;53.22
18500;BME280;9379;52.134;11.576;2023-05-03T16:39:29;101979.97;;;17.07;53.33
18500;BME280;9379;52.134;11.576;2023-05-03T16:41:56;101979.72;;;16.71;52.14
18500;BME280;9379;52.134;11.576;2023-05-03T16:44:23;101977.56;;;17.04;51.71
18500;BME280;9379;52.134;11.576;2023-05-03T16:46:50;101979.53;;;17.02;52.52
18500;BME280;9379;52.134;11.576;2023-05-03T16:49:21;101986.84;;;16.42;53.34
18500;BME280;9379;52.134;11.576;2023-05-03T16:51:48;101983.78;;;16.56;53.40
18500;BME280;9379;52.134;11.576;2023-05-03T16:54:14;101979.81;;;16.89;53.89
18500;BME280;9379;52.134;11.576;2023-05-03T16:56:42;101978.72;;;16.82;53.48
18500;BME280;9379;52.134;11.576;2023-05-03T16:59:08;101977.72;;;16.73;54.38
18500;BME280;9379;52.134;11.576;2023-05-03T17:01:35;101976.56;;;17.14;52.96
18500;BME280;9379;52.134;11.576;2023-05-03T17:04:02;101971.56;;;17.39;53.13
18500;BME280;9379;52.134;11.576;2023-05-03T17:06:32;101974.97;;;17.31;52.88
18500;BME280;9379;52.134;11.576;2023-05-03T17:08:59;101970.13;;;17.35;52.92
18500;BME280;9379;52.134;11.576;2023-05-03T17:11:25;101968.59;;;17.32;54.49
18500;BME280;9379;52.134;11.576;2023-05-03T17:13:52;101975.59;;;17.06;53.79
18500;BME280;9379;52.134;11.576;2023-05-03T17:16:19;101963.84;;;17.16;53.41
18500;BME280;9379;52.134;11.576;2023-05-03T17:18:47;101972.06;;;16.86;56.09
18500;BME280;9379;52.134;11.576;2023-05-03T17:21:14;101973.88;;;16.66;54.29
18500;BME280;9379;52.134;11.576;2023-05-03T17:23:42;101966.00;;;16.74;53.37
18500;BME280;9379;52.134;11.576;2023-05-03T17:26:09;101969.94;;;16.99;53.59
18500;BME280;9379;52.134;11.576;2023-05-03T17:28:38;101974.75;;;16.96;54.09
18500;BME280;9379;52.134;11.576;2023-05-03T17:31:05;101971.34;;;17.03;53.64
18500;BME280;9379;52.134;11.576;2023-05-03T17:33:32;101971.91;;;17.07;53.42
18500;BME280;9379;52.134;11.576;2023-05-03T17:35:59;101963.59;;;16.81;53.49
18500;BME280;9379;52.134;11.576;2023-05-03T17:38:29;101968.09;;;16.90;53.17
18500;BME280;9379;52.134;11.576;2023-05-03T17:41:01;101963.84;;;17.07;55.08
18500;BME280;9379;52.134;11.576;2023-05-03T17:43:29;101972.50;;;16.72;54.26
18500;BME280;9379;52.134;11.576;2023-05-03T17:45:55;101967.38;;;16.98;53.74
18500;BME280;9379;52.134;11.576;2023-05-03T17:48:22;101974.19;;;16.92;55.34
18500;BME280;9379;52.134;11.576;2023-05-03T17:50:56;101976.72;;;16.45;54.80
18500;BME280;9379;52.134;11.576;2023-05-03T17:53:23;101969.63;;;16.54;54.69
18500;BME280;9379;52.134;11.576;2023-05-03T17:55:49;101968.78;;;16.44;55.19
18500;BME280;9379;52.134;11.576;2023-05-03T17:58:19;101970.94;;;16.59;54.92
18500;BME280;9379;52.134;11.576;2023-05-03T18:00:46;101973.50;;;16.71;55.56
18500;BME280;9379;52.134;11.576;2023-05-03T18:03:13;101966.59;;;16.68;54.80
18500;BME280;9379;52.134;11.576;2023-05-03T18:05:41;101960.88;;;16.61;54.43
18500;BME280;9379;52.134;11.576;2023-05-03T18:08:07;101959.34;;;16.59;55.59
18500;BME280;9379;52.134;11.576;2023-05-03T18:10:35;101964.69;;;16.40;55.76
18500;BME280;9379;52.134;11.576;2023-05-03T18:13:02;101965.53;;;16.30;56.20
18500;BME280;9379;52.134;11.576;2023-05-03T18:15:30;101969.34;;;16.38;54.96
18500;BME280;9379;52.134;11.576;2023-05-03T18:17:57;101972.91;;;16.48;55.93
18500;BME280;9379;52.134;11.576;2023-05-03T18:20:26;101970.22;;;16.57;56.41
18500;BME280;9379;52.134;11.576;2023-05-03T18:22:52;101972.47;;;16.33;57.32
18500;BME280;9379;52.134;11.576;2023-05-03T18:25:19;101963.06;;;15.98;58.06
18500;BME280;9379;52.134;11.576;2023-05-03T18:27:46;101968.97;;;15.92;58.69
18500;BME280;9379;52.134;11.576;2023-05-03T18:30:13;101970.78;;;15.82;58.38
18500;BME280;9379;52.134;11.576;2023-05-03T18:32:42;101974.59;;;15.80;58.04
18500;BME280;9379;52.134;11.576;2023-05-03T18:35:09;101970.28;;;16.08;57.73
18500;BME280;9379;52.134;11.576;2023-05-03T18:37:36;101975.50;;;15.99;56.89
18500;BME280;9379;52.134;11.576;2023-05-03T18:40:04;101975.78;;;16.06;57.15
18500;BME280;9379;52.134;11.576;2023-05-03T18:42:34;101975.38;;;16.11;58.13
18500;BME280;9379;52.134;11.576;2023-05-03T18:45:01;101970.69;;;16.03;58.84
18500;BME280;9379;52.134;11.576;2023-05-03T18:47:28;101977.78;;;15.73;59.75
18500;BME280;9379;52.134;11.576;2023-05-03T18:49:57;101962.13;;;15.48;60.84
18500;BME280;9379;52.134;11.576;2023-05-03T18:52:24;101976.28;;;15.81;59.67
18500;BME280;9379;52.134;11.576;2023-05-03T18:54:51;101981.22;;;15.75;60.83
18500;BME280;9379;52.134;11.576;2023-05-03T18:57:18;101980.63;;;15.51;61.26
18500;BME280;9379;52.134;11.576;2023-05-03T18:59:45;101978.06;;;15.40;61.45
18500;BME280;9379;52.134;11.576;2023-05-03T19:02:12;101976.94;;;15.42;60.99
18500;BME280;9379;52.134;11.576;2023-05-03T19:04:40;101970.19;;;15.27;59.82
18500;BME280;9379;52.134;11.576;2023-05-03T19:07:09;101978.47;;;15.66;59.09
18500;BME280;9379;52.134;11.576;2023-05-03T19:09:35;101976.88;;;15.33;61.39
18500;BME280;9379;52.134;11.576;2023-05-03T19:12:06;101980.53;;;15.32;62.20
18500;BME280;9379;52.134;11.576;2023-05-03T19:14:36;101982.50;;;14.88;62.94
18500;BME280;9379;52.134;11.576;2023-05-03T19:17:03;101985.38;;;14.96;64.13
18500;BME280;9379;52.134;11.576;2023-05-03T19:19:30;101982.00;;;14.94;63.78
18500;BME280;9379;52.134;11.576;2023-05-03T19:21:57;101990.19;;;14.81;64.08
18500;BME280;9379;52.134;11.576;2023-05-03T19:24:25;101989.16;;;14.73;65.10
18500;BME280;9379;52.134;11.576;2023-05-03T19:26:52;101993.25;;;14.77;66.32
18500;BME280;9379;52.134;11.576;2023-05-03T19:29:20;101988.47;;;14.80;65.64
18500;BME280;9379;52.134;11.576;2023-05-03T19:31:47;101988.53;;;14.69;66.18
18500;BME280;9379;52.134;11.576;2023-05-03T19:34:14;101986.03;;;14.56;65.70
18500;BME280;9379;52.134;11.576;2023-05-03T19:36:43;101985.00;;;14.48;65.52
18500;BME280;9379;52.134;11.576;2023-05-03T19:39:10;101983.81;;;14.18;67.03
18500;BME280;9379;52.134;11.576;2023-05-03T19:41:39;101992.81;;;14.17;67.72
18500;BME280;9379;52.134;11.576;2023-05-03T19:44:05;101990.38;;;14.14;67.44
18500;BME280;9379;52.134;11.576;2023-05-03T19:46:32;101989.41;;;14.15;68.08
18500;BME280;9379;52.134;11.576;2023-05-03T19:48:59;101988.91;;;14.10;67.48
18500;BME280;9379;52.134;11.576;2023-05-03T19:51:26;101995.41;;;13.74;67.96
18500;BME280;9379;52.134;11.576;2023-05-03T19:53:53;101992.00;;;13.72;68.17
18500;BME280;9379;52.134;11.576;2023-05-03T19:56:20;102002.69;;;13.72;68.98
18500;BME280;9379;52.134;11.576;2023-05-03T19:58:48;102006.59;;;13.57;69.80
18500;BME280;9379;52.134;11.576;2023-05-03T20:01:16;101996.13;;;13.54;69.53
18500;BME280;9379;52.134;11.576;2023-05-03T20:03:42;102002.31;;;13.43;69.20
18500;BME280;9379;52.134;11.576;2023-05-03T20:06:09;102002.94;;;13.47;69.33
18500;BME280;9379;52.134;11.576;2023-05-03T20:08:36;101992.81;;;13.39;69.64
18500;BME280;9379;52.134;11.576;2023-05-03T20:11:03;101998.41;;;13.36;69.83
18500;BME280;9379;52.134;11.576;2023-05-03T20:13:30;102002.69;;;13.61;69.12
18500;BME280;9379;52.134;11.576;2023-05-03T20:16:00;102006.16;;;13.28;69.83
18500;BME280;9379;52.134;11.576;2023-05-03T20:18:27;102001.84;;;13.14;71.25
18500;BME280;9379;52.134;11.576;2023-05-03T20:20:54;101999.78;;;13.18;70.84
18500;BME280;9379;52.134;11.576;2023-05-03T20:23:21;102003.91;;;13.79;69.86
18500;BME280;9379;52.134;11.576;2023-05-03T20:25:47;102010.06;;;13.35;71.57
18500;BME280;9379;52.134;11.576;2023-05-03T20:28:14;102006.28;;;13.26;70.42
18500;BME280;9379;52.134;11.576;2023-05-03T20:30:41;102009.84;;;13.49;70.33
18500;BME280;9379;52.134;11.576;2023-05-03T20:33:09;102013.59;;;13.00;71.00
18500;BME280;9379;52.134;11.576;2023-05-03T20:35:36;102017.72;;;13.04;71.41
18500;BME280;9379;52.134;11.576;2023-05-03T20:38:03;102015.56;;;13.09;71.24
18500;BME280;9379;52.134;11.576;2023-05-03T20:40:30;102016.53;;;13.08;71.06
18500;BME280;9379;52.134;11.576;2023-05-03T20:42:58;102023.28;;;13.01;72.03
18500;BME280;9379;52.134;11.576;2023-05-03T20:45:35;102017.47;;;12.72;71.80
18500;BME280;9379;52.134;11.576;2023-05-03T20:48:02;102008.84;;;13.04;70.69
18500;BME280;9379;52.134;11.576;2023-05-03T20:50:30;102017.19;;;12.88;71.24
18500;BME280;9379;52.134;11.576;2023-05-03T20:52:57;102018.06;;;13.24;70.91
18500;BME280;9379;52.134;11.576;2023-05-03T20:55:32;102007.38;;;12.89;70.77
18500;BME280;9379;52.134;11.576;2023-05-03T20:58:01;102012.06;;;12.61;71.38
18500;BME280;9379;52.134;11.576;2023-05-03T21:00:28;102011.47;;;12.57;71.42
18500;BME280;9379;52.134;11.576;2023-05-03T21:02:55;102015.09;;;12.56;72.34
18500;BME280;9379;52.134;11.576;2023-05-03T21:05:22;102013.34;;;12.44;72.93
18500;BME280;9379;52.134;11.576;2023-05-03T21:07:50;102009.81;;;12.44;72.70
18500;BME280;9379;52.134;11.576;2023-05-03T21:10:17;102009.94;;;12.42;72.64
18500;BME280;9379;52.134;11.576;2023-05-03T21:12:44;101993.53;;;12.36;73.04
18500;BME280;9379;52.134;11.576;2023-05-03T21:15:11;102011.53;;;12.45;72.47
18500;BME280;9379;52.134;11.576;2023-05-03T21:17:37;102008.28;;;12.29;72.62
18500;BME280;9379;52.134;11.576;2023-05-03T21:20:06;102008.72;;;12.22;73.59
18500;BME280;9379;52.134;11.576;2023-05-03T21:22:33;102007.50;;;12.03;74.60
18500;BME280;9379;52.134;11.576;2023-05-03T21:25:01;102004.50;;;12.07;74.97
18500;BME280;9379;52.134;11.576;2023-05-03T21:27:28;102003.66;;;12.07;75.20
18500;BME280;9379;52.134;11.576;2023-05-03T21:29:55;102000.00;;;12.20;75.59
18500;BME280;9379;52.134;11.576;2023-05-03T21:32:22;102002.97;;;12.29;74.76
18500;BME280;9379;52.134;11.576;2023-05-03T21:34:49;102002.78;;;12.19;75.33
18500;BME280;9379;52.134;11.576;2023-05-03T21:37:16;102007.94;;;11.96;75.76
18500;BME280;9379;52.134;11.576;2023-05-03T21:39:45;102000.69;;;11.98;75.50
18500;BME280;9379;52.134;11.576;2023-05-03T21:42:13;101987.47;;;11.97;75.52
18500;BME280;9379;52.134;11.576;2023-05-03T21:44:40;101988.47;;;11.71;76.07
18500;BME280;9379;52.134;11.576;2023-05-03T21:47:07;101989.22;;;11.60;76.43
18500;BME280;9379;52.134;11.576;2023-05-03T21:49:34;101984.00;;;11.58;75.97
18500;BME280;9379;52.134;11.576;2023-05-03T21:52:00;101984.19;;;11.55;76.22
18500;BME280;9379;52.134;11.576;2023-05-03T21:54:28;101985.59;;;11.61;75.76
18500;BME280;9379;52.134;11.576;2023-05-03T21:56:55;101978.13;;;11.53;76.73
18500;BME280;9379;52.134;11.576;2023-05-03T21:59:23;101985.91;;;11.56;77.25
18500;BME280;9379;52.134;11.576;2023-05-03T22:01:50;101983.56;;;11.39;77.48
18500;BME280;9379;52.134;11.576;2023-05-03T22:04:17;101984.75;;;11.35;77.86
18500;BME280;9379;52.134;11.576;2023-05-03T22:06:44;101984.63;;;11.62;78.25
18500;BME280;9379;52.134;11.576;2023-05-03T22:09:11;101982.94;;;11.48;76.80
18500;BME280;9379;52.134;11.576;2023-05-03T22:11:38;101989.13;;;11.36;76.86
18500;BME280;9379;52.134;11.576;2023-05-03T22:14:04;101987.09;;;11.52;76.90
18500;BME280;9379;52.134;11.576;2023-05-03T22:16:33;101983.22;;;11.69;75.81
18500;BME280;9379;52.134;11.576;2023-05-03T22:18:59;101978.13;;;11.53;76.30
18500;BME280;9379;52.134;11.576;2023-05-03T22:21:26;101980.97;;;11.76;76.24
18500;BME280;9379;52.134;11.576;2023-05-03T22:23:53;101979.22;;;11.51;76.15
18500;BME280;9379;52.134;11.576;2023-05-03T22:26:20;101985.59;;;11.61;75.55
18500;BME280;9379;52.134;11.576;2023-05-03T22:28:46;101972.19;;;11.50;75.71
18500;BME280;9379;52.134;11.576;2023-05-03T22:31:13;101976.44;;;11.39;76.13
18500;BME280;9379;52.134;11.576;2023-05-03T22:33:41;101978.25;;;11.26;76.12
18500;BME280;9379;52.134;11.576;2023-05-03T22:36:10;101977.69;;;10.96;77.71
18500;BME280;9379;52.134;11.576;2023-05-03T22:38:39;101979.22;;;11.25;77.98
18500;BME280;9379;52.134;11.576;2023-05-03T22:41:06;101972.81;;;11.28;76.33
18500;BME280;9379;52.134;11.576;2023-05-03T22:43:32;101976.97;;;11.32;76.56
18500;BME280;9379;52.134;11.576;2023-05-03T22:45:59;101975.03;;;11.34;76.12
18500;BME280;9379;52.134;11.576;2023-05-03T22:48:26;101976.63;;;11.11;76.36
18500;BME280;9379;52.134;11.576;2023-05-03T22:50:57;101971.41;;;11.09;76.88
18500;BME280;9379;52.134;11.576;2023-05-03T22:53:24;101973.22;;;10.96;76.34
18500;BME280;9379;52.134;11.576;2023-05-03T22:55:55;101974.19;;;11.08;77.61
18500;BME280;9379;52.134;11.576;2023-05-03T22:58:22;101973.53;;;10.92;76.21
18500;BME280;9379;52.134;11.576;2023-05-03T23:00:50;101981.38;;;10.80;76.90
18500;BME280;9379;52.134;11.576;2023-05-03T23:03:16;101975.91;;;10.57;76.33
18500;BME280;9379;52.134;11.576;2023-05-03T23:05:43;101963.84;;;10.91;75.60
18500;BME280;9379;52.134;11.576;2023-05-03T23:08:12;101960.25;;;10.92;75.38
18500;BME280;9379;52.134;11.576;2023-05-03T23:10:39;101973.53;;;10.92;75.42
18500;BME280;9379;52.134;11.576;2023-05-03T23:13:06;101969.63;;;10.58;77.07
18500;BME280;9379;52.134;11.576;2023-05-03T23:15:33;101978.50;;;10.84;76.83
18500;BME280;9379;52.134;11.576;2023-05-03T23:18:00;101968.22;;;10.52;76.75
18500;BME280;9379;52.134;11.576;2023-05-03T23:20:27;101973.91;;;10.33;77.44
18500;BME280;9379;52.134;11.576;2023-05-03T23:22:54;101975.25;;;10.26;77.99
18500;BME280;9379;52.134;11.576;2023-05-03T23:25:22;101967.13;;;10.01;78.80
18500;BME280;9379;52.134;11.576;2023-05-03T23:27:49;101963.03;;;10.09;78.44
18500;BME280;9379;52.134;11.576;2023-05-03T23:30:15;101964.56;;;10.40;78.27